sensor_id;sensor_type;location;lat;lon;timestamp;P1;durP1;ratioP1;P2;durP2;ratioP2
21213;SDS011;10764;50.850;2.904;2022-08-30T00:02:17;228.60;;;208.65;;
21213;SDS011;10764;50.850;2.904;2022-08-30T00:04:44;219.63;;;200.38;;
21213;SDS011;10764;50.850;2.904;2022-08-30T00:07:11;219.77;;;200.60;;
21213;SDS011;10764;50.850;2.904;2022-08-30T00:09:39;202.38;;;184.95;;
21213;SDS011;10764;50.850;2.904;2022-08-30T00:12:06;200.60;;;183.45;;
21213;SDS011;10764;50.850;2.904;2022-08-30T00:14:34;227.60;;;207.67;;
21213;SDS011;10764;50.850;2.904;2022-08-30T00:17:01;202.25;;;184.93;;
21213;SDS011;10764;50.850;2.904;2022-08-30T00:19:27;178.50;;;163.60;;
21213;SDS011;10764;50.850;2.904;2022-08-30T00:21:54;176.48;;;161.85;;
21213;SDS011;10764;50.850;2.904;2022-08-30T00:24:21;206.90;;;189.07;;
21213;SDS011;10764;50.850;2.904;2022-08-30T00:26:48;196.10;;;179.32;;
21213;SDS011;10764;50.850;2.904;2022-08-30T00:29:15;198.77;;;181.73;;
21213;SDS011;10764;50.850;2.904;2022-08-30T00:31:42;187.18;;;171.27;;
21213;SDS011;10764;50.850;2.904;2022-08-30T00:34:09;205.65;;;188.05;;
21213;SDS011;10764;50.850;2.904;2022-08-30T00:36:36;217.27;;;198.38;;
21213;SDS011;10764;50.850;2.904;2022-08-30T00:39:03;228.67;;;207.70;;
21213;SDS011;10764;50.850;2.904;2022-08-30T00:41:30;199.60;;;182.52;;
21213;SDS011;10764;50.850;2.904;2022-08-30T00:43:57;233.00;;;212.20;;
21213;SDS011;10764;50.850;2.904;2022-08-30T00:46:27;220.98;;;201.70;;
21213;SDS011;10764;50.850;2.904;2022-08-30T00:48:54;215.20;;;196.60;;
21213;SDS011;10764;50.850;2.904;2022-08-30T00:51:22;237.85;;;216.85;;
21213;SDS011;10764;50.850;2.904;2022-08-30T00:53:52;228.90;;;208.73;;
21213;SDS011;10764;50.850;2.904;2022-08-30T00:56:22;238.38;;;217.35;;
21213;SDS011;10764;50.850;2.904;2022-08-30T00:58:52;245.18;;;223.35;;
21213;SDS011;10764;50.850;2.904;2022-08-30T01:01:22;166.27;;;152.65;;
21213;SDS011;10764;50.850;2.904;2022-08-30T01:03:50;148.05;;;136.38;;
21213;SDS011;10764;50.850;2.904;2022-08-30T01:06:18;160.52;;;147.40;;
21213;SDS011;10764;50.850;2.904;2022-08-30T01:08:46;131.07;;;121.05;;
21213;SDS011;10764;50.850;2.904;2022-08-30T01:11:14;163.37;;;149.93;;
21213;SDS011;10764;50.850;2.904;2022-08-30T01:13:45;212.88;;;194.48;;
21213;SDS011;10764;50.850;2.904;2022-08-30T01:16:13;247.18;;;225.25;;
21213;SDS011;10764;50.850;2.904;2022-08-30T01:18:47;239.10;;;218.20;;
21213;SDS011;10764;50.850;2.904;2022-08-30T01:21:19;244.20;;;222.90;;
21213;SDS011;10764;50.850;2.904;2022-08-30T01:23:59;200.43;;;183.43;;
21213;SDS011;10764;50.850;2.904;2022-08-30T01:26:27;168.68;;;154.80;;
21213;SDS011;10764;50.850;2.904;2022-08-30T01:28:56;146.93;;;135.35;;
21213;SDS011;10764;50.850;2.904;2022-08-30T01:31:25;150.68;;;138.55;;
21213;SDS011;10764;50.850;2.904;2022-08-30T01:33:52;178.80;;;163.90;;
21213;SDS011;10764;50.850;2.904;2022-08-30T01:36:19;222.02;;;202.63;;
21213;SDS011;10764;50.850;2.904;2022-08-30T01:38:48;219.90;;;201.00;;
21213;SDS011;10764;50.850;2.904;2022-08-30T01:41:19;227.98;;;208.25;;
21213;SDS011;10764;50.850;2.904;2022-08-30T01:43:50;228.90;;;209.20;;
21213;SDS011;10764;50.850;2.904;2022-08-30T01:46:19;232.32;;;212.13;;
21213;SDS011;10764;50.850;2.904;2022-08-30T01:48:49;227.10;;;207.27;;
21213;SDS011;10764;50.850;2.904;2022-08-30T01:51:19;234.57;;;214.07;;
21213;SDS011;10764;50.850;2.904;2022-08-30T01:53:48;220.73;;;201.65;;
21213;SDS011;10764;50.850;2.904;2022-08-30T01:56:16;241.48;;;220.27;;
21213;SDS011;10764;50.850;2.904;2022-08-30T01:58:43;238.25;;;217.32;;
21213;SDS011;10764;50.850;2.904;2022-08-30T02:01:12;253.07;;;230.73;;
21213;SDS011;10764;50.850;2.904;2022-08-30T02:03:41;237.25;;;216.52;;
21213;SDS011;10764;50.850;2.904;2022-08-30T02:06:10;235.32;;;214.77;;
21213;SDS011;10764;50.850;2.904;2022-08-30T02:08:41;251.73;;;229.47;;
21213;SDS011;10764;50.850;2.904;2022-08-30T02:11:15;232.25;;;212.07;;
21213;SDS011;10764;50.850;2.904;2022-08-30T02:13:43;219.68;;;200.93;;
21213;SDS011;10764;50.850;2.904;2022-08-30T02:16:12;222.55;;;203.32;;
21213;SDS011;10764;50.850;2.904;2022-08-30T02:18:41;207.23;;;189.38;;
21213;SDS011;10764;50.850;2.904;2022-08-30T02:21:09;222.95;;;203.65;;
21213;SDS011;10764;50.850;2.904;2022-08-30T02:23:37;248.50;;;226.35;;
21213;SDS011;10764;50.850;2.904;2022-08-30T02:26:03;239.57;;;218.67;;
21213;SDS011;10764;50.850;2.904;2022-08-30T02:28:31;232.13;;;211.93;;
21213;SDS011;10764;50.850;2.904;2022-08-30T02:30:57;254.75;;;232.25;;
21213;SDS011;10764;50.850;2.904;2022-08-30T02:33:25;236.02;;;215.27;;
21213;SDS011;10764;50.850;2.904;2022-08-30T02:35:52;233.68;;;213.25;;
21213;SDS011;10764;50.850;2.904;2022-08-30T02:38:20;232.17;;;211.90;;
21213;SDS011;10764;50.850;2.904;2022-08-30T02:40:49;257.20;;;234.20;;
21213;SDS011;10764;50.850;2.904;2022-08-30T02:43:17;245.05;;;223.40;;
21213;SDS011;10764;50.850;2.904;2022-08-30T02:45:44;248.63;;;226.47;;
21213;SDS011;10764;50.850;2.904;2022-08-30T02:48:11;232.35;;;212.10;;
21213;SDS011;10764;50.850;2.904;2022-08-30T02:50:42;247.68;;;225.65;;
21213;SDS011;10764;50.850;2.904;2022-08-30T02:53:11;231.23;;;211.02;;
21213;SDS011;10764;50.850;2.904;2022-08-30T02:55:41;222.30;;;203.13;;
21213;SDS011;10764;50.850;2.904;2022-08-30T02:58:08;248.05;;;225.93;;
21213;SDS011;10764;50.850;2.904;2022-08-30T03:00:36;249.33;;;227.30;;
21213;SDS011;10764;50.850;2.904;2022-08-30T03:03:03;242.48;;;220.73;;
21213;SDS011;10764;50.850;2.904;2022-08-30T03:05:30;222.90;;;203.50;;
21213;SDS011;10764;50.850;2.904;2022-08-30T03:07:58;235.32;;;214.70;;
21213;SDS011;10764;50.850;2.904;2022-08-30T03:10:27;228.95;;;208.70;;
21213;SDS011;10764;50.850;2.904;2022-08-30T03:12:54;244.25;;;222.52;;
21213;SDS011;10764;50.850;2.904;2022-08-30T03:15:23;235.55;;;214.57;;
21213;SDS011;10764;50.850;2.904;2022-08-30T03:17:51;228.60;;;208.50;;
21213;SDS011;10764;50.850;2.904;2022-08-30T03:20:19;247.23;;;225.27;;
21213;SDS011;10764;50.850;2.904;2022-08-30T03:22:47;240.50;;;219.30;;
21213;SDS011;10764;50.850;2.904;2022-08-30T03:25:14;244.63;;;223.07;;
21213;SDS011;10764;50.850;2.904;2022-08-30T03:27:41;247.85;;;225.77;;
21213;SDS011;10764;50.850;2.904;2022-08-30T03:30:08;232.85;;;212.38;;
21213;SDS011;10764;50.850;2.904;2022-08-30T03:32:35;229.18;;;209.02;;
21213;SDS011;10764;50.850;2.904;2022-08-30T03:35:02;259.10;;;235.82;;
21213;SDS011;10764;50.850;2.904;2022-08-30T03:37:32;252.23;;;229.82;;
21213;SDS011;10764;50.850;2.904;2022-08-30T03:40:00;237.48;;;216.20;;
21213;SDS011;10764;50.850;2.904;2022-08-30T03:42:29;216.45;;;197.55;;
21213;SDS011;10764;50.850;2.904;2022-08-30T03:44:55;221.30;;;201.70;;
21213;SDS011;10764;50.850;2.904;2022-08-30T03:47:22;217.38;;;198.20;;
21213;SDS011;10764;50.850;2.904;2022-08-30T03:49:50;237.10;;;215.93;;
21213;SDS011;10764;50.850;2.904;2022-08-30T03:52:17;235.68;;;214.88;;
21213;SDS011;10764;50.850;2.904;2022-08-30T03:54:44;250.65;;;228.30;;
21213;SDS011;10764;50.850;2.904;2022-08-30T03:57:11;229.73;;;209.73;;
21213;SDS011;10764;50.850;2.904;2022-08-30T03:59:45;237.10;;;216.13;;
21213;SDS011;10764;50.850;2.904;2022-08-30T04:02:13;224.85;;;205.43;;
21213;SDS011;10764;50.850;2.904;2022-08-30T04:04:40;250.07;;;227.88;;
21213;SDS011;10764;50.850;2.904;2022-08-30T04:07:07;244.85;;;223.20;;
21213;SDS011;10764;50.850;2.904;2022-08-30T04:09:34;248.20;;;226.15;;
21213;SDS011;10764;50.850;2.904;2022-08-30T04:12:01;249.10;;;227.05;;
21213;SDS011;10764;50.850;2.904;2022-08-30T04:14:28;215.45;;;196.90;;
21213;SDS011;10764;50.850;2.904;2022-08-30T04:16:55;217.32;;;198.32;;
21213;SDS011;10764;50.850;2.904;2022-08-30T04:19:23;215.77;;;197.00;;
21213;SDS011;10764;50.850;2.904;2022-08-30T04:21:50;210.43;;;192.27;;
21213;SDS011;10764;50.850;2.904;2022-08-30T04:24:17;230.70;;;210.45;;
21213;SDS011;10764;50.850;2.904;2022-08-30T04:26:44;211.00;;;192.77;;
21213;SDS011;10764;50.850;2.904;2022-08-30T04:29:11;224.95;;;205.35;;
21213;SDS011;10764;50.850;2.904;2022-08-30T04:31:41;252.82;;;229.90;;
21213;SDS011;10764;50.850;2.904;2022-08-30T04:34:09;239.45;;;217.88;;
21213;SDS011;10764;50.850;2.904;2022-08-30T04:36:37;254.23;;;231.57;;
21213;SDS011;10764;50.850;2.904;2022-08-30T04:39:04;257.10;;;234.10;;
21213;SDS011;10764;50.850;2.904;2022-08-30T04:41:32;263.85;;;240.10;;
21213;SDS011;10764;50.850;2.904;2022-08-30T04:44:01;261.77;;;238.27;;
21213;SDS011;10764;50.850;2.904;2022-08-30T04:46:28;269.67;;;245.33;;
21213;SDS011;10764;50.850;2.904;2022-08-30T04:48:55;238.43;;;217.43;;
21213;SDS011;10764;50.850;2.904;2022-08-30T04:51:23;256.98;;;233.80;;
21213;SDS011;10764;50.850;2.904;2022-08-30T04:53:49;244.70;;;222.75;;
21213;SDS011;10764;50.850;2.904;2022-08-30T04:56:18;241.93;;;220.57;;
21213;SDS011;10764;50.850;2.904;2022-08-30T04:58:49;247.32;;;225.13;;
21213;SDS011;10764;50.850;2.904;2022-08-30T05:01:22;242.18;;;221.05;;
21213;SDS011;10764;50.850;2.904;2022-08-30T05:03:51;228.70;;;209.05;;
21213;SDS011;10764;50.850;2.904;2022-08-30T05:06:20;223.98;;;204.57;;
21213;SDS011;10764;50.850;2.904;2022-08-30T05:08:48;248.15;;;225.95;;
21213;SDS011;10764;50.850;2.904;2022-08-30T05:11:15;236.63;;;215.88;;
21213;SDS011;10764;50.850;2.904;2022-08-30T05:13:43;214.93;;;196.30;;
21213;SDS011;10764;50.850;2.904;2022-08-30T05:16:11;218.45;;;199.35;;
21213;SDS011;10764;50.850;2.904;2022-08-30T05:18:44;234.70;;;213.82;;
21213;SDS011;10764;50.850;2.904;2022-08-30T05:21:13;235.02;;;214.13;;
21213;SDS011;10764;50.850;2.904;2022-08-30T05:23:43;246.20;;;223.73;;
21213;SDS011;10764;50.850;2.904;2022-08-30T05:26:11;243.27;;;221.43;;
21213;SDS011;10764;50.850;2.904;2022-08-30T05:28:40;267.65;;;241.52;;
21213;SDS011;10764;50.850;2.904;2022-08-30T05:31:26;190.77;;;174.52;;
21213;SDS011;10764;50.850;2.904;2022-08-30T05:33:58;245.00;;;223.10;;
21213;SDS011;10764;50.850;2.904;2022-08-30T05:36:28;230.25;;;209.77;;
21213;SDS011;10764;50.850;2.904;2022-08-30T05:38:56;275.80;;;248.32;;
21213;SDS011;10764;50.850;2.904;2022-08-30T05:41:24;229.75;;;209.25;;
21213;SDS011;10764;50.850;2.904;2022-08-30T05:43:53;253.68;;;230.68;;
21213;SDS011;10764;50.850;2.904;2022-08-30T05:46:25;193.38;;;176.65;;
21213;SDS011;10764;50.850;2.904;2022-08-30T05:48:55;211.93;;;193.43;;
21213;SDS011;10764;50.850;2.904;2022-08-30T05:51:24;223.65;;;203.80;;
21213;SDS011;10764;50.850;2.904;2022-08-30T05:53:54;229.10;;;208.77;;
21213;SDS011;10764;50.850;2.904;2022-08-30T05:56:24;221.70;;;201.97;;
21213;SDS011;10764;50.850;2.904;2022-08-30T05:58:53;218.87;;;199.63;;
21213;SDS011;10764;50.850;2.904;2022-08-30T06:01:21;156.10;;;143.30;;
21213;SDS011;10764;50.850;2.904;2022-08-30T06:03:55;229.05;;;208.75;;
21213;SDS011;10764;50.850;2.904;2022-08-30T06:06:29;220.23;;;200.80;;
21213;SDS011;10764;50.850;2.904;2022-08-30T06:08:59;219.37;;;200.10;;
21213;SDS011;10764;50.850;2.904;2022-08-30T06:11:26;213.23;;;194.45;;
21213;SDS011;10764;50.850;2.904;2022-08-30T06:13:53;182.93;;;167.57;;
21213;SDS011;10764;50.850;2.904;2022-08-30T06:16:24;229.70;;;209.10;;
21213;SDS011;10764;50.850;2.904;2022-08-30T06:18:53;235.75;;;214.60;;
21213;SDS011;10764;50.850;2.904;2022-08-30T06:21:23;249.52;;;226.80;;
21213;SDS011;10764;50.850;2.904;2022-08-30T06:23:53;245.45;;;223.15;;
21213;SDS011;10764;50.850;2.904;2022-08-30T06:26:21;235.18;;;214.20;;
21213;SDS011;10764;50.850;2.904;2022-08-30T06:28:48;244.27;;;222.15;;
21213;SDS011;10764;50.850;2.904;2022-08-30T06:31:16;252.15;;;229.25;;
21213;SDS011;10764;50.850;2.904;2022-08-30T06:33:45;232.30;;;211.80;;
21213;SDS011;10764;50.850;2.904;2022-08-30T06:36:16;259.35;;;235.85;;
21213;SDS011;10764;50.850;2.904;2022-08-30T06:38:48;254.30;;;231.23;;
21213;SDS011;10764;50.850;2.904;2022-08-30T06:41:18;257.35;;;234.38;;
21213;SDS011;10764;50.850;2.904;2022-08-30T06:43:47;243.13;;;221.52;;
21213;SDS011;10764;50.850;2.904;2022-08-30T06:46:19;257.67;;;234.40;;
21213;SDS011;10764;50.850;2.904;2022-08-30T06:48:51;256.67;;;233.75;;
21213;SDS011;10764;50.850;2.904;2022-08-30T06:51:22;249.05;;;226.63;;
21213;SDS011;10764;50.850;2.904;2022-08-30T06:53:51;264.10;;;240.27;;
21213;SDS011;10764;50.850;2.904;2022-08-30T06:56:19;252.67;;;229.70;;
21213;SDS011;10764;50.850;2.904;2022-08-30T06:58:47;263.63;;;239.52;;
21213;SDS011;10764;50.850;2.904;2022-08-30T07:01:16;264.95;;;240.82;;
21213;SDS011;10764;50.850;2.904;2022-08-30T07:03:47;260.38;;;236.85;;
21213;SDS011;10764;50.850;2.904;2022-08-30T07:06:14;271.73;;;246.68;;
21213;SDS011;10764;50.850;2.904;2022-08-30T07:08:44;264.77;;;240.43;;
21213;SDS011;10764;50.850;2.904;2022-08-30T07:11:11;248.75;;;226.50;;
21213;SDS011;10764;50.850;2.904;2022-08-30T07:13:38;267.90;;;243.43;;
21213;SDS011;10764;50.850;2.904;2022-08-30T07:16:09;271.73;;;246.80;;
21213;SDS011;10764;50.850;2.904;2022-08-30T07:18:37;277.57;;;251.93;;
21213;SDS011;10764;50.850;2.904;2022-08-30T07:21:17;271.42;;;246.45;;
21213;SDS011;10764;50.850;2.904;2022-08-30T07:23:46;285.67;;;259.13;;
21213;SDS011;10764;50.850;2.904;2022-08-30T07:26:24;301.40;;;272.92;;
21213;SDS011;10764;50.850;2.904;2022-08-30T07:29:14;310.17;;;280.93;;
21213;SDS011;10764;50.850;2.904;2022-08-30T07:31:42;283.30;;;257.02;;
21213;SDS011;10764;50.850;2.904;2022-08-30T07:34:11;282.58;;;256.38;;
21213;SDS011;10764;50.850;2.904;2022-08-30T07:36:38;302.55;;;274.02;;
21213;SDS011;10764;50.850;2.904;2022-08-30T07:39:05;303.03;;;274.53;;
21213;SDS011;10764;50.850;2.904;2022-08-30T07:41:34;282.48;;;256.27;;
21213;SDS011;10764;50.850;2.904;2022-08-30T07:44:04;287.40;;;260.80;;
21213;SDS011;10764;50.850;2.904;2022-08-30T07:46:32;254.75;;;231.60;;
21213;SDS011;10764;50.850;2.904;2022-08-30T07:48:59;287.02;;;260.23;;
21213;SDS011;10764;50.850;2.904;2022-08-30T07:51:29;311.20;;;281.70;;
21213;SDS011;10764;50.850;2.904;2022-08-30T07:53:56;332.17;;;300.45;;
21213;SDS011;10764;50.850;2.904;2022-08-30T07:56:23;243.10;;;221.18;;
21213;SDS011;10764;50.850;2.904;2022-08-30T07:58:51;267.33;;;242.73;;
21213;SDS011;10764;50.850;2.904;2022-08-30T08:01:18;337.55;;;305.13;;
21213;SDS011;10764;50.850;2.904;2022-08-30T08:03:46;280.80;;;254.87;;
21213;SDS011;10764;50.850;2.904;2022-08-30T08:06:15;256.65;;;233.20;;
21213;SDS011;10764;50.850;2.904;2022-08-30T08:08:44;257.50;;;234.25;;
21213;SDS011;10764;50.850;2.904;2022-08-30T08:11:18;278.63;;;252.93;;
21213;SDS011;10764;50.850;2.904;2022-08-30T08:13:48;267.63;;;243.23;;
21213;SDS011;10764;50.850;2.904;2022-08-30T08:16:21;245.00;;;223.10;;
21213;SDS011;10764;50.850;2.904;2022-08-30T08:18:49;219.00;;;199.68;;
21213;SDS011;10764;50.850;2.904;2022-08-30T08:21:17;267.75;;;243.30;;
21213;SDS011;10764;50.850;2.904;2022-08-30T08:23:44;133.75;;;123.28;;
21213;SDS011;10764;50.850;2.904;2022-08-30T08:26:11;131.45;;;121.13;;
21213;SDS011;10764;50.850;2.904;2022-08-30T08:28:39;164.48;;;150.85;;
21213;SDS011;10764;50.850;2.904;2022-08-30T08:31:14;193.45;;;176.93;;
21213;SDS011;10764;50.850;2.904;2022-08-30T08:33:43;175.23;;;160.43;;
21213;SDS011;10764;50.850;2.904;2022-08-30T08:36:11;198.27;;;181.13;;
21213;SDS011;10764;50.850;2.904;2022-08-30T08:38:38;195.63;;;178.75;;
21213;SDS011;10764;50.850;2.904;2022-08-30T08:43:51;162.68;;;149.27;;
21213;SDS011;10764;50.850;2.904;2022-08-30T08:48:47;215.68;;;196.90;;
21213;SDS011;10764;50.850;2.904;2022-08-30T08:51:27;219.45;;;200.25;;
21213;SDS011;10764;50.850;2.904;2022-08-30T08:54:33;215.17;;;196.63;;
21213;SDS011;10764;50.850;2.904;2022-08-30T08:57:08;156.25;;;143.70;;
21213;SDS011;10764;50.850;2.904;2022-08-30T08:59:41;214.85;;;196.07;;
21213;SDS011;10764;50.850;2.904;2022-08-30T09:04:54;221.77;;;202.37;;
21213;SDS011;10764;50.850;2.904;2022-08-30T09:07:29;206.88;;;189.13;;
21213;SDS011;10764;50.850;2.904;2022-08-30T09:09:57;219.45;;;200.38;;
21213;SDS011;10764;50.850;2.904;2022-08-30T09:12:27;206.18;;;188.48;;
21213;SDS011;10764;50.850;2.904;2022-08-30T09:14:55;215.50;;;197.00;;
21213;SDS011;10764;50.850;2.904;2022-08-30T09:17:47;219.13;;;200.13;;
21213;SDS011;10764;50.850;2.904;2022-08-30T09:20:32;238.95;;;217.88;;
21213;SDS011;10764;50.850;2.904;2022-08-30T09:23:10;237.40;;;216.43;;
21213;SDS011;10764;50.850;2.904;2022-08-30T09:25:51;195.82;;;179.23;;
21213;SDS011;10764;50.850;2.904;2022-08-30T09:28:28;243.65;;;222.07;;
21213;SDS011;10764;50.850;2.904;2022-08-30T09:33:37;258.52;;;235.32;;
21213;SDS011;10764;50.850;2.904;2022-08-30T09:38:58;279.48;;;253.98;;
21213;SDS011;10764;50.850;2.904;2022-08-30T09:41:38;237.82;;;216.57;;
21213;SDS011;10764;50.850;2.904;2022-08-30T09:44:10;244.77;;;222.82;;
21213;SDS011;10764;50.850;2.904;2022-08-30T09:46:43;186.25;;;170.60;;
21213;SDS011;10764;50.850;2.904;2022-08-30T09:49:30;237.00;;;216.15;;
21213;SDS011;10764;50.850;2.904;2022-08-30T09:57:56;248.50;;;226.23;;
21213;SDS011;10764;50.850;2.904;2022-08-30T10:00:26;297.70;;;269.85;;
21213;SDS011;10764;50.850;2.904;2022-08-30T10:05:44;258.98;;;235.45;;
21213;SDS011;10764;50.850;2.904;2022-08-30T10:11:01;242.20;;;220.35;;
21213;SDS011;10764;50.850;2.904;2022-08-30T10:16:43;279.10;;;253.43;;
21213;SDS011;10764;50.850;2.904;2022-08-30T10:22:11;267.45;;;243.00;;
21213;SDS011;10764;50.850;2.904;2022-08-30T10:24:43;283.80;;;257.27;;
21213;SDS011;10764;50.850;2.904;2022-08-30T10:27:20;256.80;;;233.55;;
21213;SDS011;10764;50.850;2.904;2022-08-30T10:30:06;262.60;;;238.60;;
21213;SDS011;10764;50.850;2.904;2022-08-30T10:35:20;261.38;;;237.63;;
21213;SDS011;10764;50.850;2.904;2022-08-30T10:37:50;272.20;;;247.23;;
21213;SDS011;10764;50.850;2.904;2022-08-30T10:40:33;276.20;;;250.80;;
21213;SDS011;10764;50.850;2.904;2022-08-30T10:43:32;259.90;;;236.23;;
21213;SDS011;10764;50.850;2.904;2022-08-30T10:49:02;264.47;;;239.47;;
21213;SDS011;10764;50.850;2.904;2022-08-30T10:51:54;275.15;;;248.18;;
21213;SDS011;10764;50.850;2.904;2022-08-30T10:54:40;278.38;;;252.73;;
21213;SDS011;10764;50.850;2.904;2022-08-30T10:57:19;257.15;;;233.65;;
21213;SDS011;10764;50.850;2.904;2022-08-30T11:00:21;232.32;;;211.63;;
21213;SDS011;10764;50.850;2.904;2022-08-30T11:05:44;277.42;;;251.52;;
21213;SDS011;10764;50.850;2.904;2022-08-30T11:14:00;214.43;;;195.75;;
21213;SDS011;10764;50.850;2.904;2022-08-30T11:16:36;230.40;;;209.90;;
21213;SDS011;10764;50.850;2.904;2022-08-30T11:19:20;223.60;;;203.88;;
21213;SDS011;10764;50.850;2.904;2022-08-30T11:21:51;189.65;;;173.50;;
21213;SDS011;10764;50.850;2.904;2022-08-30T11:24:57;167.10;;;153.23;;
21213;SDS011;10764;50.850;2.904;2022-08-30T11:27:49;186.75;;;170.73;;
21213;SDS011;10764;50.850;2.904;2022-08-30T11:35:39;179.48;;;164.30;;
21213;SDS011;10764;50.850;2.904;2022-08-30T11:46:15;236.93;;;215.67;;
21213;SDS011;10764;50.850;2.904;2022-08-30T12:00:41;233.80;;;213.10;;
21213;SDS011;10764;50.850;2.904;2022-08-30T12:05:58;222.07;;;202.67;;
21213;SDS011;10764;50.850;2.904;2022-08-30T12:10:59;218.77;;;199.60;;
21213;SDS011;10764;50.850;2.904;2022-08-30T12:21:11;253.02;;;230.13;;
21213;SDS011;10764;50.850;2.904;2022-08-30T12:23:41;256.67;;;231.60;;
21213;SDS011;10764;50.850;2.904;2022-08-30T12:28:51;236.75;;;215.68;;
21213;SDS011;10764;50.850;2.904;2022-08-30T12:31:39;248.80;;;226.20;;
21213;SDS011;10764;50.850;2.904;2022-08-30T12:34:23;189.43;;;173.17;;
21213;SDS011;10764;50.850;2.904;2022-08-30T12:39:34;202.00;;;184.40;;
21213;SDS011;10764;50.850;2.904;2022-08-30T12:42:26;209.93;;;191.57;;
21213;SDS011;10764;50.850;2.904;2022-08-30T12:44:56;249.20;;;226.77;;
21213;SDS011;10764;50.850;2.904;2022-08-30T12:47:31;252.98;;;230.18;;
21213;SDS011;10764;50.850;2.904;2022-08-30T12:49:59;267.77;;;243.38;;
21213;SDS011;10764;50.850;2.904;2022-08-30T12:52:33;192.23;;;175.55;;
21213;SDS011;10764;50.850;2.904;2022-08-30T12:55:17;257.75;;;234.32;;
21213;SDS011;10764;50.850;2.904;2022-08-30T13:00:31;263.50;;;239.65;;
21213;SDS011;10764;50.850;2.904;2022-08-30T13:03:01;248.05;;;225.98;;
21213;SDS011;10764;50.850;2.904;2022-08-30T13:05:43;275.30;;;250.23;;
21213;SDS011;10764;50.850;2.904;2022-08-30T13:10:57;254.98;;;231.98;;
21213;SDS011;10764;50.850;2.904;2022-08-30T13:13:29;257.00;;;233.82;;
21213;SDS011;10764;50.850;2.904;2022-08-30T13:16:05;269.58;;;245.23;;
21213;SDS011;10764;50.850;2.904;2022-08-30T13:18:38;267.93;;;243.53;;
21213;SDS011;10764;50.850;2.904;2022-08-30T13:23:49;247.03;;;224.60;;
21213;SDS011;10764;50.850;2.904;2022-08-30T13:26:20;256.13;;;233.03;;
21213;SDS011;10764;50.850;2.904;2022-08-30T13:28:51;238.43;;;217.10;;
21213;SDS011;10764;50.850;2.904;2022-08-30T13:31:20;261.23;;;237.53;;
21213;SDS011;10764;50.850;2.904;2022-08-30T13:33:47;162.73;;;149.30;;
21213;SDS011;10764;50.850;2.904;2022-08-30T13:36:19;267.90;;;243.63;;
21213;SDS011;10764;50.850;2.904;2022-08-30T13:38:50;252.70;;;230.13;;
21213;SDS011;10764;50.850;2.904;2022-08-30T13:41:17;256.85;;;233.93;;
21213;SDS011;10764;50.850;2.904;2022-08-30T13:43:46;247.82;;;226.02;;
21213;SDS011;10764;50.850;2.904;2022-08-30T13:46:33;250.90;;;228.73;;
21213;SDS011;10764;50.850;2.904;2022-08-30T13:49:04;267.95;;;243.95;;
21213;SDS011;10764;50.850;2.904;2022-08-30T13:51:53;259.63;;;236.23;;
21213;SDS011;10764;50.850;2.904;2022-08-30T13:54:40;256.17;;;233.03;;
21213;SDS011;10764;50.850;2.904;2022-08-30T13:57:07;254.73;;;231.75;;
21213;SDS011;10764;50.850;2.904;2022-08-30T13:59:34;257.88;;;234.48;;
21213;SDS011;10764;50.850;2.904;2022-08-30T14:02:01;225.85;;;205.93;;
21213;SDS011;10764;50.850;2.904;2022-08-30T14:04:36;93.60;;;86.75;;
21213;SDS011;10764;50.850;2.904;2022-08-30T14:07:04;185.77;;;169.90;;
21213;SDS011;10764;50.850;2.904;2022-08-30T14:09:45;208.57;;;190.27;;
21213;SDS011;10764;50.850;2.904;2022-08-30T14:12:12;232.50;;;212.18;;
21213;SDS011;10764;50.850;2.904;2022-08-30T14:14:39;254.30;;;231.55;;
21213;SDS011;10764;50.850;2.904;2022-08-30T14:17:09;246.63;;;224.75;;
21213;SDS011;10764;50.850;2.904;2022-08-30T14:19:37;251.23;;;228.77;;
21213;SDS011;10764;50.850;2.904;2022-08-30T14:22:04;256.83;;;233.90;;
21213;SDS011;10764;50.850;2.904;2022-08-30T14:24:31;236.25;;;215.73;;
21213;SDS011;10764;50.850;2.904;2022-08-30T14:26:59;230.13;;;210.25;;
21213;SDS011;10764;50.850;2.904;2022-08-30T14:29:26;250.30;;;227.47;;
21213;SDS011;10764;50.850;2.904;2022-08-30T14:31:55;245.43;;;223.70;;
21213;SDS011;10764;50.850;2.904;2022-08-30T14:34:25;266.70;;;242.63;;
21213;SDS011;10764;50.850;2.904;2022-08-30T14:36:52;267.00;;;243.00;;
21213;SDS011;10764;50.850;2.904;2022-08-30T14:39:19;241.20;;;220.05;;
21213;SDS011;10764;50.850;2.904;2022-08-30T14:41:51;235.85;;;215.27;;
21213;SDS011;10764;50.850;2.904;2022-08-30T14:44:21;255.55;;;232.77;;
21213;SDS011;10764;50.850;2.904;2022-08-30T14:46:49;253.23;;;230.80;;
21213;SDS011;10764;50.850;2.904;2022-08-30T14:49:18;236.98;;;216.07;;
21213;SDS011;10764;50.850;2.904;2022-08-30T14:51:46;242.80;;;221.27;;
21213;SDS011;10764;50.850;2.904;2022-08-30T14:54:15;234.20;;;213.60;;
21213;SDS011;10764;50.850;2.904;2022-08-30T14:56:44;232.52;;;212.10;;
21213;SDS011;10764;50.850;2.904;2022-08-30T14:59:12;261.42;;;237.98;;
21213;SDS011;10764;50.850;2.904;2022-08-30T15:01:40;253.02;;;230.30;;
21213;SDS011;10764;50.850;2.904;2022-08-30T15:04:07;238.88;;;217.80;;
21213;SDS011;10764;50.850;2.904;2022-08-30T15:06:36;246.90;;;224.82;;
21213;SDS011;10764;50.850;2.904;2022-08-30T15:09:05;247.02;;;225.15;;
21213;SDS011;10764;50.850;2.904;2022-08-30T15:11:34;227.68;;;207.80;;
21213;SDS011;10764;50.850;2.904;2022-08-30T15:14:01;250.27;;;227.88;;
21213;SDS011;10764;50.850;2.904;2022-08-30T15:16:30;250.65;;;228.25;;
21213;SDS011;10764;50.850;2.904;2022-08-30T15:19:00;244.30;;;222.55;;
21213;SDS011;10764;50.850;2.904;2022-08-30T15:21:29;246.43;;;224.25;;
21213;SDS011;10764;50.850;2.904;2022-08-30T15:23:58;242.65;;;221.25;;
21213;SDS011;10764;50.850;2.904;2022-08-30T15:26:26;218.05;;;199.10;;
21213;SDS011;10764;50.850;2.904;2022-08-30T15:28:53;251.50;;;229.13;;
21213;SDS011;10764;50.850;2.904;2022-08-30T15:31:25;242.63;;;221.15;;
21213;SDS011;10764;50.850;2.904;2022-08-30T15:33:54;242.52;;;220.82;;
21213;SDS011;10764;50.850;2.904;2022-08-30T15:36:22;248.80;;;226.48;;
21213;SDS011;10764;50.850;2.904;2022-08-30T15:38:53;249.48;;;226.95;;
21213;SDS011;10764;50.850;2.904;2022-08-30T15:41:21;255.67;;;232.57;;
21213;SDS011;10764;50.850;2.904;2022-08-30T15:43:50;254.25;;;231.30;;
21213;SDS011;10764;50.850;2.904;2022-08-30T15:46:19;243.60;;;221.93;;
21213;SDS011;10764;50.850;2.904;2022-08-30T15:49:13;259.67;;;236.13;;
21213;SDS011;10764;50.850;2.904;2022-08-30T15:51:45;227.40;;;207.10;;
21213;SDS011;10764;50.850;2.904;2022-08-30T15:54:19;231.80;;;211.27;;